Time;durP1;ratioP1;P1;durP2;ratioP2;P2;SDS_P1;SDS_P2;PMS_P1;PMS_P2;Temp;Humidity;BMP_temperature;BMP_pressure;BME280_temperature;BME280_humidity;BME280_pressure;Samples;Min_cycle;Max_cycle;Signal;HPM_P1;HPM_P2
2022/03/09 00:00:17;;;;;;;3.08;1.90;;;3.60;71.20;;;;;;5050722;28;20094;-73
2022/03/09 00:02:43;;;;;;;5.47;2.80;;;3.60;71.10;;;;;;5050789;28;20037;-73
2022/03/09 00:05:08;;;;;;;2.95;2.17;;;3.60;71.20;;;;;;5033877;28;20048;-73
2022/03/09 00:07:35;;;;;;;5.07;2.78;;;3.50;71.30;;;;;;5050395;28;20037;-73
2022/03/09 00:10:00;;;;;;;4.00;2.78;;;3.60;71.60;;;;;;5050504;28;20075;-73
2022/03/09 00:12:26;;;;;;;3.00;2.50;;;3.60;71.40;;;;;;5049883;28;20041;-73
2022/03/09 00:14:52;;;;;;;3.88;2.70;;;3.60;71.30;;;;;;5050633;28;20098;-73
2022/03/09 00:17:17;;;;;;;5.53;3.92;;;3.50;71.30;;;;;;5050095;28;20094;-72
2022/03/09 00:19:43;;;;;;;5.45;2.78;;;3.60;71.40;;;;;;5050455;28;20037;-73
2022/03/09 00:22:08;;;;;;;5.00;3.00;;;3.50;71.80;;;;;;5033915;28;20045;-72
2022/03/09 00:24:34;;;;;;;4.50;3.10;;;3.50;72.10;;;;;;5050557;28;20067;-72
2022/03/09 00:27:00;;;;;;;5.35;2.90;;;3.50;72.20;;;;;;5049934;28;20055;-73
2022/03/09 00:29:26;;;;;;;5.25;3.00;;;3.50;72.50;;;;;;5051739;28;20438;-73
2022/03/09 00:31:52;;;;;;;4.13;2.92;;;3.40;72.60;;;;;;5050459;28;20033;-72
2022/03/09 00:34:18;;;;;;;5.50;3.15;;;3.40;72.70;;;;;;5050348;28;20045;-73
2022/03/09 00:36:43;;;;;;;6.15;3.70;;;3.40;72.70;;;;;;5050294;28;20040;-73
2022/03/09 00:39:09;;;;;;;4.68;2.90;;;3.30;72.70;;;;;;5050281;28;20048;-72
2022/03/09 00:41:35;;;;;;;4.43;3.03;;;3.30;72.80;;;;;;5050170;28;20041;-72
2022/03/09 00:44:01;;;;;;;4.75;3.00;;;3.30;73.00;;;;;;5050297;28;20124;-73
2022/03/09 00:46:27;;;;;;;5.28;3.05;;;3.30;72.80;;;;;;5049867;28;20036;-73
2022/03/09 00:48:52;;;;;;;6.13;3.70;;;3.30;72.60;;;;;;5051562;28;20125;-72
2022/03/09 00:51:18;;;;;;;4.78;3.17;;;3.30;72.50;;;;;;5050267;28;20119;-72
2022/03/09 00:53:44;;;;;;;5.70;3.60;;;3.30;72.70;;;;;;5050443;28;20438;-73
2022/03/09 00:56:10;;;;;;;5.18;3.28;;;3.30;72.80;;;;;;5049911;28;20049;-73
2022/03/09 00:58:35;;;;;;;4.78;3.30;;;3.30;72.70;;;;;;5050199;28;20120;-72
2022/03/09 01:01:01;;;;;;;6.32;3.80;;;3.20;73.40;;;;;;5051348;28;20037;-73
2022/03/09 01:03:26;;;;;;;6.43;3.95;;;3.20;73.20;;;;;;5050370;28;20068;-73
2022/03/09 01:05:52;;;;;;;5.50;3.13;;;3.20;73.20;;;;;;5049650;28;20488;-73
2022/03/09 01:08:17;;;;;;;7.18;3.47;;;3.20;73.10;;;;;;5051354;28;20068;-73
2022/03/09 01:10:43;;;;;;;7.55;3.85;;;3.20;73.00;;;;;;5050208;28;20068;-72
2022/03/09 01:13:09;;;;;;;6.85;3.70;;;3.10;72.90;;;;;;5051172;28;20083;-73
2022/03/09 01:15:34;;;;;;;7.22;4.18;;;3.10;73.10;;;;;;5049902;28;20040;-74
2022/03/09 01:18:00;;;;;;;4.82;3.45;;;3.10;73.30;;;;;;5050117;28;20125;-73
2022/03/09 01:20:25;;;;;;;6.57;3.72;;;3.10;73.20;;;;;;5051233;28;20560;-73
2022/03/09 01:22:52;;;;;;;5.72;3.50;;;3.20;73.40;;;;;;5051025;28;20052;-73
2022/03/09 01:25:18;;;;;;;5.93;3.53;;;3.10;73.10;;;;;;5054444;28;20037;-73
2022/03/09 01:27:43;;;;;;;6.25;3.72;;;3.10;73.30;;;;;;5053673;28;20525;-73
2022/03/09 01:30:09;;;;;;;5.68;3.55;;;3.10;73.50;;;;;;5053817;28;20517;-73
2022/03/09 01:32:35;;;;;;;8.35;3.78;;;3.00;73.50;;;;;;5053489;28;20037;-73
2022/03/09 01:35:00;;;;;;;6.30;3.72;;;3.00;73.50;;;;;;5054679;28;20124;-72
2022/03/09 01:37:26;;;;;;;6.70;4.20;;;3.00;73.40;;;;;;5054420;28;20033;-73
2022/03/09 01:39:52;;;;;;;5.50;3.30;;;3.00;73.40;;;;;;5054469;28;20078;-73
2022/03/09 01:42:17;;;;;;;6.85;3.95;;;3.00;73.40;;;;;;5053593;28;20068;-72
2022/03/09 01:44:43;;;;;;;6.72;3.85;;;3.00;73.50;;;;;;5053171;28;20041;-73
2022/03/09 01:47:09;;;;;;;7.15;4.28;;;3.00;73.60;;;;;;5053050;28;20410;-73
2022/03/09 01:49:34;;;;;;;5.28;4.22;;;3.00;73.90;;;;;;5053385;28;20127;-73
2022/03/09 01:52:00;;;;;;;5.53;4.03;;;2.90;73.90;;;;;;5054398;28;20040;-73
2022/03/09 01:54:28;;;;;;;6.15;4.20;;;3.00;74.10;;;;;;5036344;28;20414;-73
2022/03/09 01:56:54;;;;;;;8.02;4.22;;;2.90;74.90;;;;;;5052896;28;20372;-73
2022/03/09 01:59:19;;;;;;;6.20;3.83;;;2.90;75.00;;;;;;5053132;28;20045;-72
2022/03/09 02:01:46;;;;;;;7.15;4.30;;;2.80;75.10;;;;;;5052888;28;20048;-72
2022/03/09 02:04:12;;;;;;;10.23;4.63;;;2.80;75.30;;;;;;5053007;28;20073;-72
2022/03/09 02:06:39;;;;;;;9.52;4.78;;;2.70;75.50;;;;;;5052393;28;20075;-73
2022/03/09 02:11:51;;;;;;;7.28;4.15;;;2.70;76.00;;;;;;5052903;28;20106;-73
2022/03/09 02:14:32;;;;;;;7.43;4.80;;;2.70;76.00;;;;;;5036405;28;20044;-72
2022/03/09 02:16:59;;;;;;;5.55;4.30;;;2.70;76.20;;;;;;5052462;28;20086;-73
2022/03/09 02:19:25;;;;;;;6.63;5.05;;;2.60;75.90;;;;;;5052545;28;20044;-73
2022/03/09 02:21:55;;;;;;;6.40;4.78;;;2.60;75.90;;;;;;5052639;28;20041;-73
2022/03/09 02:24:22;;;;;;;6.53;4.32;;;2.60;75.90;;;;;;5052400;28;20037;-73
2022/03/09 02:26:49;;;;;;;9.38;5.60;;;2.60;75.80;;;;;;5052143;28;20044;-72
2022/03/09 02:29:15;;;;;;;9.30;5.28;;;2.70;75.90;;;;;;5052637;28;20060;-73
2022/03/09 02:31:40;;;;;;;6.30;4.05;;;2.60;75.80;;;;;;5052706;28;20045;-72
2022/03/09 02:34:06;;;;;;;7.05;4.60;;;2.60;75.80;;;;;;5051902;28;20051;-72
2022/03/09 02:36:32;;;;;;;7.03;4.20;;;2.60;76.10;;;;;;5051826;28;20036;-73
2022/03/09 02:38:58;;;;;;;8.18;4.57;;;2.60;76.30;;;;;;5052297;28;20508;-73
2022/03/09 02:41:24;;;;;;;7.60;4.35;;;2.60;76.30;;;;;;5035451;28;20047;-72
2022/03/09 02:43:49;;;;;;;9.88;4.93;;;2.60;76.10;;;;;;5052135;28;20049;-73
2022/03/09 02:46:15;;;;;;;11.75;5.15;;;2.60;76.20;;;;;;5051622;28;20048;-73
2022/03/09 02:48:41;;;;;;;10.07;5.20;;;2.60;76.00;;;;;;5052185;28;20036;-72
2022/03/09 02:51:06;;;;;;;8.30;5.00;;;2.60;76.50;;;;;;5051890;28;20060;-72
2022/03/09 02:53:32;;;;;;;8.98;4.70;;;2.50;76.50;;;;;;5051994;28;20094;-72
2022/03/09 02:55:57;;;;;;;7.35;4.80;;;2.50;76.60;;;;;;5052791;28;20044;-72
2022/03/09 02:58:23;;;;;;;9.45;5.50;;;2.50;76.80;;;;;;5052117;28;20044;-73
2022/03/09 03:00:49;;;;;;;10.63;5.85;;;2.50;77.30;;;;;;5051832;28;20072;-72
2022/03/09 03:03:14;;;;;;;9.85;5.93;;;2.50;77.80;;;;;;5051631;28;20469;-72
2022/03/09 03:05:40;;;;;;;9.95;5.85;;;2.40;78.50;;;;;;5051262;28;20037;-72
2022/03/09 03:08:06;;;;;;;7.75;4.90;;;2.40;79.20;;;;;;5034954;28;20438;-72
2022/03/09 03:10:31;;;;;;;10.20;5.50;;;2.30;79.60;;;;;;5053037;28;20479;-73
2022/03/09 03:12:57;;;;;;;10.38;5.65;;;2.30;79.90;;;;;;5051825;28;20048;-72
2022/03/09 03:15:22;;;;;;;11.23;5.47;;;2.30;80.30;;;;;;5051357;28;20048;-72
2022/03/09 03:17:48;;;;;;;7.95;5.38;;;2.30;80.70;;;;;;5051373;28;20060;-72
2022/03/09 03:20:13;;;;;;;10.77;5.82;;;2.20;80.50;;;;;;5051393;28;20041;-73
2022/03/09 03:22:39;;;;;;;13.13;5.65;;;2.20;81.10;;;;;;5034791;28;20041;-72
2022/03/09 03:25:05;;;;;;;10.65;5.78;;;2.20;81.60;;;;;;5051227;28;20383;-72
2022/03/09 03:27:30;;;;;;;10.43;5.95;;;2.20;81.60;;;;;;5051007;28;20576;-73
2022/03/09 03:29:56;;;;;;;8.55;5.10;;;2.20;81.60;;;;;;5051239;28;20052;-73
2022/03/09 03:32:22;;;;;;;11.63;5.47;;;2.20;81.90;;;;;;5051252;28;20447;-72
2022/03/09 03:34:48;;;;;;;7.72;4.90;;;2.20;82.30;;;;;;5051269;28;20044;-72
2022/03/09 03:37:13;;;;;;;10.38;6.25;;;2.20;82.60;;;;;;5050789;28;20041;-72
2022/03/09 03:39:39;;;;;;;13.30;5.53;;;2.10;82.90;;;;;;5034508;28;20041;-72
2022/03/09 03:42:05;;;;;;;8.75;6.07;;;2.10;83.30;;;;;;5051043;28;20619;-73
2022/03/09 03:44:30;;;;;;;9.25;5.85;;;2.10;83.40;;;;;;5050911;28;20051;-73
2022/03/09 03:46:56;;;;;;;8.35;5.10;;;2.10;83.90;;;;;;5049376;28;20119;-72
2022/03/09 03:49:21;;;;;;;8.57;5.50;;;2.00;84.00;;;;;;5051006;28;20043;-72
2022/03/09 03:51:47;;;;;;;8.70;5.00;;;2.10;84.80;;;;;;5051052;28;20075;-72
2022/03/09 03:54:13;;;;;;;8.98;5.20;;;2.10;85.30;;;;;;5051146;28;20098;-72
2022/03/09 03:56:38;;;;;;;8.68;5.30;;;2.00;85.10;;;;;;5051031;28;20041;-73
2022/03/09 03:59:04;;;;;;;12.70;5.35;;;2.00;85.10;;;;;;5050960;28;20140;-73
2022/03/09 04:01:29;;;;;;;9.45;5.85;;;2.00;85.60;;;;;;5050912;28;20391;-72
2022/03/09 04:03:55;;;;;;;11.07;5.88;;;2.00;85.80;;;;;;5050860;28;20718;-72
2022/03/09 04:06:20;;;;;;;9.00;5.60;;;2.00;85.70;;;;;;5051771;28;20556;-72
2022/03/09 04:08:46;;;;;;;9.50;5.43;;;2.00;85.70;;;;;;5050616;28;20072;-73
2022/03/09 04:11:11;;;;;;;7.57;5.10;;;2.00;85.40;;;;;;5051060;28;20041;-72
2022/03/09 04:13:37;;;;;;;10.75;5.55;;;2.00;85.70;;;;;;5051096;28;20029;-74
2022/03/09 04:16:03;;;;;;;9.85;5.72;;;2.00;85.40;;;;;;5050366;28;20075;-72
2022/03/09 04:18:28;;;;;;;9.00;5.32;;;2.00;85.60;;;;;;5051714;28;20040;-72
2022/03/09 04:20:54;;;;;;;8.38;5.65;;;2.00;85.20;;;;;;5050433;28;20478;-72
2022/03/09 04:23:19;;;;;;;11.23;6.47;;;2.00;85.50;;;;;;5050489;28;20572;-72
2022/03/09 04:25:45;;;;;;;10.52;6.35;;;2.00;85.50;;;;;;5050095;28;20040;-72
2022/03/09 04:28:11;;;;;;;11.32;6.20;;;1.90;85.80;;;;;;5050613;28;20491;-72
2022/03/09 04:30:36;;;;;;;12.85;6.95;;;1.90;85.80;;;;;;5050339;28;20044;-72
2022/03/09 04:33:02;;;;;;;12.43;7.32;;;2.00;85.90;;;;;;5050314;28;20540;-73
2022/03/09 04:35:27;;;;;;;10.52;6.82;;;1.90;85.70;;;;;;5050016;28;20128;-72
2022/03/09 04:37:53;;;;;;;12.88;6.55;;;1.90;85.90;;;;;;5050196;28;20041;-72
2022/03/09 04:40:18;;;;;;;11.50;7.22;;;1.90;86.20;;;;;;5050289;28;20120;-72
2022/03/09 04:42:44;;;;;;;13.85;7.80;;;1.80;86.30;;;;;;5050476;28;20041;-72
2022/03/09 04:45:10;;;;;;;13.25;7.85;;;1.80;87.30;;;;;;5051500;28;20402;-72
2022/03/09 04:47:35;;;;;;;12.60;8.07;;;1.80;87.30;;;;;;5049700;28;20399;-72
2022/03/09 04:50:01;;;;;;;13.45;8.10;;;1.80;86.90;;;;;;5050551;28;20037;-72
2022/03/09 04:52:27;;;;;;;10.13;6.65;;;1.80;87.10;;;;;;5051602;28;20037;-72
2022/03/09 04:54:52;;;;;;;15.07;8.00;;;1.80;87.30;;;;;;5050342;28;20498;-72
2022/03/09 04:57:18;;;;;;;11.13;7.28;;;1.80;87.70;;;;;;5050139;28;20049;-72
2022/03/09 04:59:43;;;;;;;11.20;7.45;;;1.80;87.60;;;;;;5054288;28;20072;-72
2022/03/09 05:02:09;;;;;;;13.32;6.75;;;1.80;87.90;;;;;;5053944;28;20041;-72
2022/03/09 05:04:35;;;;;;;11.02;7.03;;;1.70;88.10;;;;;;5055301;28;20045;-72
2022/03/09 05:07:01;;;;;;;10.52;6.78;;;1.80;88.90;;;;;;5053622;28;20406;-73
2022/03/09 05:09:26;;;;;;;11.93;6.70;;;1.80;88.90;;;;;;5053995;28;20130;-72
2022/03/09 05:11:52;;;;;;;11.13;6.07;;;1.70;89.00;;;;;;5053868;28;20041;-72
2022/03/09 05:14:17;;;;;;;9.82;5.82;;;1.70;89.30;;;;;;5054147;28;20549;-72
2022/03/09 05:16:43;;;;;;;11.75;6.00;;;1.60;89.60;;;;;;5053322;28;20037;-72
2022/03/09 05:19:08;;;;;;;11.43;6.88;;;1.60;89.90;;;;;;5053974;28;20402;-72
2022/03/09 05:21:34;;;;;;;10.35;6.55;;;1.60;90.40;;;;;;5037002;28;20126;-73
2022/03/09 05:24:00;;;;;;;9.98;6.30;;;1.60;90.50;;;;;;5053585;28;20252;-72
2022/03/09 05:26:25;;;;;;;12.25;6.68;;;1.60;90.50;;;;;;5053377;28;20402;-71
2022/03/09 05:28:51;;;;;;;12.18;6.45;;;1.60;90.70;;;;;;5054996;28;20035;-72
2022/03/09 05:31:18;;;;;;;12.25;6.20;;;1.50;90.90;;;;;;5053465;28;20490;-72
2022/03/09 05:33:43;;;;;;;10.38;6.68;;;1.50;91.00;;;;;;5055099;28;20071;-71
2022/03/09 05:36:09;;;;;;;8.05;5.75;;;1.50;91.30;;;;;;5054607;28;20625;-72
2022/03/09 05:38:35;;;;;;;12.35;5.78;;;1.50;91.30;;;;;;5053459;28;20090;-71
2022/03/09 05:41:00;;;;;;;10.02;6.57;;;1.40;91.40;;;;;;5054655;28;20110;-71
2022/03/09 05:43:26;;;;;;;12.18;6.22;;;1.50;91.50;;;;;;5054605;28;20041;-71
2022/03/09 05:45:51;;;;;;;11.10;6.40;;;1.40;91.70;;;;;;5052774;28;20124;-71
2022/03/09 05:48:17;;;;;;;11.10;6.70;;;1.40;91.80;;;;;;5053343;28;20072;-71
2022/03/09 05:50:42;;;;;;;14.45;6.80;;;1.40;92.00;;;;;;5053082;28;20037;-72
2022/03/09 05:53:08;;;;;;;11.25;5.88;;;1.40;91.90;;;;;;5053467;28;20043;-71
2022/03/09 05:55:33;;;;;;;9.68;6.13;;;1.40;92.30;;;;;;5054091;28;20041;-71
2022/03/09 05:57:59;;;;;;;12.13;6.45;;;1.40;92.20;;;;;;5053199;28;20407;-72
2022/03/09 06:00:24;;;;;;;11.80;6.85;;;1.30;92.60;;;;;;5052762;28;20052;-71
2022/03/09 06:02:50;;;;;;;10.35;6.57;;;1.30;92.60;;;;;;5053056;28;20434;-72
2022/03/09 06:05:16;;;;;;;13.50;7.07;;;1.30;92.90;;;;;;5052452;28;20616;-72
2022/03/09 06:07:41;;;;;;;11.27;6.63;;;1.30;93.00;;;;;;5052614;28;20575;-72
2022/03/09 06:10:07;;;;;;;9.90;6.57;;;1.40;93.20;;;;;;5051677;28;20075;-71
2022/03/09 06:12:33;;;;;;;11.80;6.22;;;1.40;93.30;;;;;;5052148;28;20513;-71
2022/03/09 06:14:59;;;;;;;12.40;6.93;;;1.40;93.30;;;;;;5052573;28;20041;-71
2022/03/09 06:17:24;;;;;;;26.90;7.95;;;1.40;93.80;;;;;;5052424;28;20523;-71
2022/03/09 06:19:50;;;;;;;23.90;6.88;;;1.40;94.00;;;;;;5052609;28;20110;-71
2022/03/09 06:22:15;;;;;;;25.75;7.65;;;1.40;94.00;;;;;;5052781;28;20073;-71
2022/03/09 06:24:41;;;;;;;19.92;7.15;;;1.40;94.20;;;;;;5052645;28;20124;-71
2022/03/09 06:27:06;;;;;;;19.92;7.63;;;1.40;94.40;;;;;;5052469;28;20041;-71
2022/03/09 06:29:32;;;;;;;15.45;7.10;;;1.40;94.20;;;;;;5052304;28;20041;-71
2022/03/09 06:31:58;;;;;;;15.15;7.38;;;1.30;94.40;;;;;;5052654;28;20037;-71
2022/03/09 06:34:23;;;;;;;9.65;6.05;;;1.30;94.30;;;;;;5052296;28;20048;-72
2022/03/09 06:36:51;;;;;;;8.70;6.13;;;1.30;94.60;;;;;;5052290;28;20452;-72
2022/03/09 06:39:17;;;;;;;11.15;6.70;;;1.30;94.40;;;;;;5052231;28;20149;-72
2022/03/09 06:41:44;;;;;;;11.35;7.15;;;1.40;94.60;;;;;;5052298;28;20098;-71
2022/03/09 06:44:12;;;;;;;10.23;7.20;;;1.30;94.70;;;;;;5051944;28;20483;-72
2022/03/09 06:46:38;;;;;;;15.40;7.10;;;1.40;94.70;;;;;;5052056;28;20037;-71
2022/03/09 06:49:03;;;;;;;9.48;6.30;;;1.40;94.70;;;;;;5052132;28;20051;-71
2022/03/09 06:51:29;;;;;;;10.63;6.90;;;1.40;94.70;;;;;;5051957;28;20068;-71
2022/03/09 06:53:54;;;;;;;12.48;7.35;;;1.50;94.70;;;;;;5052305;28;20072;-71
2022/03/09 06:56:20;;;;;;;16.58;7.45;;;1.60;94.60;;;;;;5051615;28;20041;-71
2022/03/09 06:58:46;;;;;;;11.45;6.90;;;1.70;94.30;;;;;;5051827;28;20417;-71
2022/03/09 07:01:12;;;;;;;10.90;7.43;;;1.90;94.20;;;;;;5051913;28;20045;-72
2022/03/09 07:03:38;;;;;;;11.98;7.60;;;2.00;93.80;;;;;;5052006;28;20043;-71
2022/03/09 07:06:03;;;;;;;12.18;6.85;;;2.20;93.40;;;;;;5051772;28;20068;-71
2022/03/09 07:08:29;;;;;;;11.27;6.97;;;2.50;92.90;;;;;;5051763;28;20033;-71
2022/03/09 07:10:55;;;;;;;10.77;6.53;;;2.70;92.40;;;;;;5051829;28;20045;-71
2022/03/09 07:13:20;;;;;;;13.15;7.43;;;2.90;92.00;;;;;;5051620;28;20490;-71
2022/03/09 07:15:46;;;;;;;13.73;7.35;;;3.10;91.70;;;;;;5051415;28;20033;-71
2022/03/09 07:18:12;;;;;;;13.70;7.30;;;3.30;91.10;;;;;;5034915;28;20041;-72
2022/03/09 07:20:38;;;;;;;11.13;6.65;;;3.60;90.30;;;;;;5034735;28;20040;-72
2022/03/09 07:23:03;;;;;;;11.40;6.93;;;3.60;89.60;;;;;;5051441;28;20090;-71
2022/03/09 07:25:29;;;;;;;11.18;7.28;;;3.70;88.30;;;;;;5051130;28;20068;-72
2022/03/09 07:27:54;;;;;;;10.77;6.93;;;4.00;87.40;;;;;;5051499;28;20080;-71
2022/03/09 07:30:20;;;;;;;10.05;7.43;;;4.00;86.30;;;;;;5051385;28;20068;-71
2022/03/09 07:32:45;;;;;;;10.20;6.47;;;4.10;85.20;;;;;;5051548;28;20033;-71
2022/03/09 07:35:11;;;;;;;10.52;6.93;;;4.30;84.90;;;;;;5051471;28;20124;-72
2022/03/09 07:37:37;;;;;;;10.82;7.05;;;4.50;84.00;;;;;;5050879;28;20076;-72
2022/03/09 07:40:07;;;;;;;13.85;7.47;;;4.60;82.90;;;;;;5052409;28;20520;-71
2022/03/09 07:42:33;;;;;;;12.50;7.65;;;4.80;81.60;;;;;;5051210;28;20406;-72
2022/03/09 07:44:58;;;;;;;10.73;6.65;;;4.90;81.30;;;;;;5051147;28;20044;-73
2022/03/09 07:47:24;;;;;;;10.73;6.82;;;5.10;80.80;;;;;;5052368;28;20544;-72
2022/03/09 07:49:49;;;;;;;11.98;6.88;;;5.20;80.40;;;;;;5051704;28;20045;-73
2022/03/09 07:52:15;;;;;;;11.73;6.80;;;5.30;79.60;;;;;;5052020;28;20041;-73
2022/03/09 07:54:41;;;;;;;12.02;7.93;;;5.40;78.80;;;;;;5052785;28;20044;-73
2022/03/09 07:57:06;;;;;;;9.32;6.35;;;5.50;78.30;;;;;;5034228;28;20090;-73
2022/03/09 07:59:32;;;;;;;13.90;7.93;;;5.80;77.90;;;;;;5050816;28;20052;-72
2022/03/09 08:01:57;;;;;;;13.65;7.35;;;6.00;76.90;;;;;;5050719;28;20090;-72
2022/03/09 08:04:24;;;;;;;13.70;7.57;;;6.10;76.10;;;;;;5050827;28;20471;-73
2022/03/09 08:06:51;;;;;;;10.90;7.10;;;6.10;75.80;;;;;;5050239;28;20433;-73
2022/03/09 08:09:17;;;;;;;12.65;6.70;;;6.30;74.60;;;;;;5051674;28;20037;-72
2022/03/09 08:11:44;;;;;;;12.32;7.22;;;6.30;74.10;;;;;;5050430;28;20045;-72
2022/03/09 08:14:10;;;;;;;10.55;7.40;;;6.50;73.70;;;;;;5050665;28;20082;-72
2022/03/09 08:16:37;;;;;;;11.52;7.10;;;6.80;73.60;;;;;;5050083;28;20056;-72
2022/03/09 08:19:03;;;;;;;16.55;8.43;;;7.00;73.00;;;;;;5034702;28;20087;-73
2022/03/09 08:21:29;;;;;;;12.88;7.93;;;7.10;72.50;;;;;;5050681;28;20040;-73
2022/03/09 08:23:55;;;;;;;11.20;7.30;;;7.20;71.70;;;;;;5050471;28;20130;-72
2022/03/09 08:26:21;;;;;;;12.60;7.47;;;7.40;71.10;;;;;;5050057;28;20048;-72
2022/03/09 08:28:46;;;;;;;9.18;7.40;;;7.50;70.40;;;;;;5051846;28;20562;-73
2022/03/09 08:31:13;;;;;;;14.27;7.78;;;7.70;69.40;;;;;;5050395;28;20041;-72
2022/03/09 08:33:38;;;;;;;12.63;8.00;;;7.60;69.40;;;;;;5056783;28;20402;-72
2022/03/09 08:36:04;;;;;;;12.80;7.38;;;7.70;68.70;;;;;;5056864;28;20033;-72
2022/03/09 08:38:30;;;;;;;12.45;7.28;;;7.80;67.90;;;;;;5056957;28;20490;-72
2022/03/09 08:40:55;;;;;;;14.13;7.88;;;7.90;67.00;;;;;;5057017;28;20048;-72
2022/03/09 08:43:21;;;;;;;10.68;7.88;;;8.00;66.80;;;;;;5058315;28;20453;-72
2022/03/09 08:45:47;;;;;;;12.75;7.55;;;8.00;65.90;;;;;;5058127;28;20037;-73
2022/03/09 08:48:13;;;;;;;10.07;7.53;;;8.20;66.20;;;;;;5058039;28;20406;-72
2022/03/09 08:50:39;;;;;;;9.50;7.03;;;8.30;65.10;;;;;;5057290;28;20513;-72
2022/03/09 08:53:04;;;;;;;9.63;6.90;;;8.20;64.30;;;;;;5058416;28;20128;-71
2022/03/09 08:55:30;;;;;;;9.70;6.65;;;8.30;64.10;;;;;;5057997;28;20056;-71
2022/03/09 08:57:56;;;;;;;12.15;7.25;;;8.30;63.80;;;;;;5058190;28;20490;-72
2022/03/09 09:00:22;;;;;;;12.05;7.20;;;8.40;64.20;;;;;;5056908;28;20089;-73
2022/03/09 09:02:48;;;;;;;10.75;7.53;;;8.50;63.90;;;;;;5057487;28;20036;-72
2022/03/09 09:05:14;;;;;;;10.55;7.28;;;8.50;62.90;;;;;;5058176;28;20417;-72
2022/03/09 09:07:39;;;;;;;11.20;7.28;;;8.40;62.80;;;;;;5056399;28;20040;-72
2022/03/09 09:10:06;;;;;;;9.82;7.15;;;8.50;63.10;;;;;;5058210;28;20041;-72
2022/03/09 09:12:32;;;;;;;14.25;7.28;;;8.40;62.00;;;;;;5056611;28;20127;-71
2022/03/09 09:14:57;;;;;;;12.80;7.30;;;8.30;62.20;;;;;;5057030;28;20072;-72
2022/03/09 09:17:23;;;;;;;11.50;7.43;;;8.30;62.90;;;;;;5057743;28;20037;-71
2022/03/09 09:19:49;;;;;;;13.05;7.72;;;8.40;63.00;;;;;;5057859;28;20041;-71
2022/03/09 09:22:14;;;;;;;10.75;6.68;;;8.40;62.00;;;;;;5058032;28;20120;-72
2022/03/09 09:24:40;;;;;;;10.30;6.53;;;8.30;62.20;;;;;;5056825;28;20178;-72
2022/03/09 09:27:06;;;;;;;9.35;6.72;;;8.30;62.40;;;;;;5057313;28;20033;-73
2022/03/09 09:29:32;;;;;;;11.93;7.00;;;8.30;62.30;;;;;;5057951;28;20124;-72
2022/03/09 09:31:58;;;;;;;10.90;6.95;;;8.20;61.70;;;;;;5057910;28;20112;-72
2022/03/09 09:34:24;;;;;;;13.32;6.97;;;8.20;61.00;;;;;;5057596;28;20048;-72
2022/03/09 09:36:49;;;;;;;9.65;6.70;;;8.20;60.00;;;;;;5056896;28;20529;-74
2022/03/09 09:39:17;;;;;;;10.27;6.30;;;8.20;59.90;;;;;;5040109;28;20129;-72
2022/03/09 09:41:44;;;;;;;10.45;7.15;;;8.20;59.60;;;;;;5057540;28;20401;-72
2022/03/09 09:44:13;;;;;;;9.90;6.72;;;8.20;59.60;;;;;;5055390;28;20037;-73
2022/03/09 09:46:41;;;;;;;9.77;6.43;;;8.20;59.50;;;;;;5054059;28;20499;-72
2022/03/09 09:49:12;;;;;;;23.45;8.07;;;8.30;59.90;;;;;;5053656;28;20048;-73
2022/03/09 09:51:40;;;;;;;9.82;6.47;;;8.30;59.00;;;;;;5053091;28;20506;-73
2022/03/09 09:54:06;;;;;;;15.02;8.10;;;8.40;59.00;;;;;;5036786;28;20055;-73
2022/03/09 09:56:40;;;;;;;9.55;7.10;;;8.30;58.70;;;;;;5053007;28;20394;-73
2022/03/09 09:59:06;;;;;;;;;;;8.40;57.70;;;;;;5053848;28;20568;-74
2022/03/09 10:01:32;;;;;;;10.48;6.95;;;8.40;56.90;;;;;;5052945;28;19983;-72
2022/03/09 10:03:58;;;;;;;9.80;6.43;;;8.40;57.70;;;;;;5053540;28;20498;-72
2022/03/09 10:06:23;;;;;;;11.45;7.25;;;8.50;58.00;;;;;;5053640;28;20086;-73
2022/03/09 10:09:06;;;;;;;8.90;6.65;;;8.50;57.70;;;;;;5053113;28;20390;-75
2022/03/09 10:11:48;;;;;;;11.83;7.13;;;8.50;57.20;;;;;;5052831;28;20076;-72
2022/03/09 10:14:15;;;;;;;11.20;7.30;;;8.50;57.30;;;;;;5052776;28;20341;-73
2022/03/09 10:17:11;;;;;;;10.32;6.88;;;8.60;57.30;;;;;;5035171;28;20033;-72
2022/03/09 10:19:40;;;;;;;13.32;7.53;;;8.60;55.60;;;;;;5052033;28;20045;-73
2022/03/09 10:22:26;;;;;;;12.18;7.15;;;8.70;56.10;;;;;;5053924;28;20041;-73
2022/03/09 10:24:53;;;;;;;12.93;7.30;;;8.70;56.50;;;;;;5052381;28;20041;-73
2022/03/09 10:27:37;;;;;;;10.57;6.90;;;8.70;55.60;;;;;;5053364;28;20044;-73
2022/03/09 10:30:09;;;;;;;10.68;7.03;;;8.80;55.60;;;;;;5052556;28;20037;-72
2022/03/09 10:32:47;;;;;;;9.68;6.57;;;8.80;55.90;;;;;;5052835;28;20375;-73
2022/03/09 10:35:15;;;;;;;9.50;6.30;;;8.90;55.00;;;;;;5052227;28;20139;-73
2022/03/09 10:37:42;;;;;;;10.35;7.05;;;9.00;55.30;;;;;;5053730;28;20049;-73
2022/03/09 10:40:19;;;;;;;13.23;6.40;;;9.00;55.10;;;;;;5035969;28;20041;-73
2022/03/09 10:42:46;;;;;;;12.27;6.75;;;9.00;55.10;;;;;;5053895;28;20102;-73
2022/03/09 10:45:12;;;;;;;9.23;6.60;;;9.00;55.50;;;;;;5052036;28;20045;-73
2022/03/09 10:47:56;;;;;;;10.70;7.95;;;9.10;54.90;;;;;;5052151;28;20045;-72
2022/03/09 10:50:28;;;;;;;12.02;7.60;;;9.10;52.90;;;;;;5053448;28;20549;-73
2022/03/09 10:52:59;;;;;;;11.27;7.07;;;9.20;54.50;;;;;;5053566;28;20041;-73
2022/03/09 10:55:35;;;;;;;11.02;6.88;;;9.20;54.50;;;;;;5051492;28;20506;-74
2022/03/09 10:58:21;;;;;;;11.43;7.00;;;9.20;55.00;;;;;;5052240;28;20051;-73
2022/03/09 11:00:52;;;;;;;10.45;7.07;;;9.20;54.20;;;;;;5051943;28;20124;-73
2022/03/09 11:03:23;;;;;;;13.68;7.53;;;9.20;54.40;;;;;;5051884;28;20513;-73
2022/03/09 11:05:59;;;;;;;16.92;7.80;;;9.20;54.60;;;;;;5051516;28;20049;-73
2022/03/09 11:08:31;;;;;;;10.43;6.95;;;9.30;54.50;;;;;;5051456;28;20040;-71
2022/03/09 11:11:00;;;;;;;10.25;7.22;;;9.20;53.50;;;;;;5052387;28;20474;-71
2022/03/09 11:13:27;;;;;;;12.95;7.93;;;9.20;53.70;;;;;;5051604;28;20044;-71
2022/03/09 11:15:54;;;;;;;11.27;7.65;;;9.30;54.10;;;;;;5051413;28;20052;-72
2022/03/09 11:18:24;;;;;;;10.68;7.40;;;9.40;54.40;;;;;;5051618;28;20052;-71
2022/03/09 11:20:52;;;;;;;12.15;7.95;;;9.40;53.40;;;;;;5034839;28;20042;-71
2022/03/09 11:23:19;;;;;;;10.98;7.03;;;9.40;53.20;;;;;;5051325;28;20528;-71
2022/03/09 11:26:01;;;;;;;11.02;7.18;;;9.40;53.40;;;;;;5050916;28;20078;-71
2022/03/09 11:28:40;;;;;;;10.70;7.65;;;9.40;53.10;;;;;;5050726;28;20029;-72
2022/03/09 11:31:08;;;;;;;12.18;7.75;;;9.40;53.30;;;;;;5051262;28;20124;-71
2022/03/09 11:33:48;;;;;;;9.90;7.20;;;9.50;52.90;;;;;;5050698;28;20045;-71
2022/03/09 11:36:29;;;;;;;11.73;7.15;;;9.50;53.10;;;;;;5049747;28;20067;-71
2022/03/09 11:39:19;;;;;;;15.70;7.85;;;9.50;53.00;;;;;;5050419;28;20087;-71
2022/03/09 11:41:44;;;;;;;9.50;7.20;;;9.60;52.50;;;;;;5034535;28;20040;-71
2022/03/09 11:44:19;;;;;;;10.18;7.40;;;9.60;51.50;;;;;;5050864;28;20075;-71
2022/03/09 11:46:56;;;;;;;14.88;8.13;;;9.60;51.70;;;;;;5050438;28;20111;-71
2022/03/09 11:49:22;;;;;;;10.00;7.60;;;9.70;50.80;;;;;;5051075;28;20037;-71
2022/03/09 11:52:08;;;;;;;10.30;7.22;;;9.80;49.00;;;;;;5052246;28;20398;-71
2022/03/09 11:54:54;;;;;;;10.45;6.68;;;9.80;48.60;;;;;;5050710;28;20037;-71
2022/03/09 11:57:23;;;;;;;11.70;7.78;;;9.90;48.80;;;;;;5050634;28;20045;-71
2022/03/09 12:00:09;;;;;;;12.57;7.10;;;9.90;48.80;;;;;;5052237;28;20112;-72
2022/03/09 12:02:48;;;;;;;12.60;7.13;;;10.00;48.20;;;;;;5050648;28;20080;-71
2022/03/09 12:05:31;;;;;;;15.20;7.45;;;10.00;47.80;;;;;;5050561;28;20490;-71
2022/03/09 12:08:01;;;;;;;10.13;6.63;;;10.00;47.90;;;;;;5049737;28;20033;-71
2022/03/09 12:10:56;;;;;;;9.27;6.85;;;10.10;47.90;;;;;;5050610;28;20041;-71
2022/03/09 12:13:43;;;;;;;11.15;7.32;;;10.10;46.50;;;;;;5035974;28;20055;-72
2022/03/09 12:16:14;;;;;;;10.65;7.13;;;10.20;47.80;;;;;;5049550;28;20044;-72
2022/03/09 12:18:57;;;;;;;9.85;7.13;;;10.20;48.60;;;;;;5050044;28;20037;-72
2022/03/09 12:21:25;;;;;;;10.57;7.22;;;10.40;48.00;;;;;;5050389;28;20047;-72
2022/03/09 12:24:00;;;;;;;11.95;7.20;;;10.40;47.40;;;;;;5050150;28;20052;-71
2022/03/09 12:26:41;;;;;;;13.77;7.55;;;10.40;46.20;;;;;;5050050;28;20048;-71
2022/03/09 12:29:29;;;;;;;11.80;7.13;;;10.50;45.70;;;;;;5050373;28;20106;-71
2022/03/09 12:32:05;;;;;;;11.55;7.85;;;10.50;45.70;;;;;;5050024;28;20041;-72
2022/03/09 12:34:43;;;;;;;11.38;6.70;;;10.60;46.20;;;;;;5051636;28;20053;-73
2022/03/09 12:37:16;;;;;;;12.50;6.97;;;10.60;44.20;;;;;;5049884;28;20045;-73
2022/03/09 12:39:48;;;;;;;9.32;7.30;;;10.60;45.60;;;;;;5050716;28;20056;-73
2022/03/09 12:42:16;;;;;;;10.30;7.03;;;10.70;45.60;;;;;;5034101;28;20060;-72
2022/03/09 12:44:41;;;;;;;12.38;7.88;;;10.80;45.30;;;;;;5050361;28;20506;-72
2022/03/09 12:47:07;;;;;;;9.40;7.28;;;10.80;44.70;;;;;;5050110;28;20043;-72
2022/03/09 12:49:36;;;;;;;10.13;7.35;;;10.90;43.50;;;;;;5049751;28;20033;-71
2022/03/09 12:52:07;;;;;;;10.25;6.80;;;10.90;44.20;;;;;;5050283;28;20036;-72
2022/03/09 12:54:41;;;;;;;9.27;6.97;;;11.00;44.30;;;;;;5050365;28;20055;-71